Weather History for KPEX - January, 2013

Change the Weather History Date:

Friday, January 18, 2013

  Actual Average (KLJF) Record (KLJF)
Temperature  
Mean Temperature 25 °F -  
Max Temperature 36 °F 20 °F 47 °F (1981)
Min Temperature 14 °F 0 °F -31 °F (1970)
Degree Days  
Heating Degree Days 40    
Moisture  
Dew Point 21 °F    
Average Humidity 81    
Maximum Humidity 97    
Minimum Humidity 68    
Precipitation  
Precipitation 0.00 in - - ()
Sea Level Pressure  
Sea Level Pressure 29.84 in    
Wind  
Wind Speed 8 mph (SSW)    
Max Wind Speed 15 mph    
Max Gust Speed 21 mph    
Visibility 10 miles    
Events Snow    
Averages and records for this station are not official NWS values.
T = Trace of Precipitation, MM = Missing Value Source: NWS Daily Summary

Daily Weather History Graph

Daily Weather History Graph

Search for Another Location

Airport or City:

Trip Planner

Search our weather history database for the weather conditions in past years. The results will help you decide how hot, cold, wet, or windy it might be!

Date:

Astronomy

Jan. 18, 2013 Rise Set
Actual Time 7:52 AM CST 5:06 PM CST
Civil Twilight 7:19 AM CST 5:39 PM CST
Nautical Twilight 6:43 AM CST 6:15 PM CST
Astronomical Twilight 6:08 AM CST 6:51 PM CST
Moon 11:07 AM CST (1/18) 12:20 AM CST (1/18)
Length of Visible Light 10h 19m
Length of Day
9h 14m
Waxing Crescent, 47% of the Moon is Illuminated
Jan 18
Waxing Crescent
Jan 18
First Quarter
Jan 26
Full
Feb 3
Last Quarter
Feb 10
New

Hourly Weather History & Observations

Time (CST) Temp. Windchill Dew Point Humidity Pressure Visibility Wind Dir Wind Speed Gust Speed Precip Events Conditions
12:14 AM 14.9 °F 5.0 °F 9.0 °F 77% 30.19 in 10.0 mi ESE 6.9 mph - N/A   Overcast
12:33 AM 14.9 °F 5.0 °F 8.6 °F 76% 30.18 in 10.0 mi SE 6.9 mph - N/A Snow Light Snow
12:53 AM 15.3 °F 4.4 °F 9.1 °F 77% 30.16 in 5.0 mi ESE 8.1 mph - N/A Snow Light Snow
1:13 AM 15.3 °F 3.5 °F 9.5 °F 78% 30.13 in 7.0 mi SE 9.2 mph - N/A Snow Light Snow
1:33 AM 15.6 °F 4.0 °F 9.5 °F 77% 30.12 in 10.0 mi ESE 9.2 mph - N/A   Overcast
1:53 AM 16.2 °F 3.9 °F 9.3 °F 74% 30.10 in 10.0 mi ESE 10.4 mph - N/A   Overcast
2:13 AM 16.5 °F 5.1 °F 9.5 °F 74% 30.10 in 10.0 mi ESE 9.2 mph - N/A   Overcast
2:34 AM 16.7 °F 4.5 °F 9.5 °F 73% 30.08 in 10.0 mi ESE 10.4 mph - N/A   Overcast
2:53 AM 17.1 °F 5.0 °F 10.0 °F 74% 30.07 in 10.0 mi ESE 10.4 mph - N/A   Overcast
3:13 AM 17.2 °F 6.0 °F 10.2 °F 74% 30.07 in 10.0 mi ESE 9.2 mph - N/A   Overcast
3:33 AM 17.6 °F 5.0 °F 10.2 °F 73% 30.05 in 10.0 mi ESE 11.5 mph - N/A   Overcast
3:53 AM 17.8 °F 5.9 °F 10.8 °F 74% 30.03 in 10.0 mi SE 10.4 mph - N/A   Overcast
4:14 AM 18.0 °F 6.1 °F 11.3 °F 75% 30.00 in 10.0 mi SE 10.4 mph - N/A   Overcast
4:33 AM 18.3 °F 4.1 °F 11.5 °F 75% 29.97 in 10.0 mi SE 15.0 mph 20.7 mph N/A   Overcast
4:53 AM 18.5 °F 6.1 °F 12.0 °F 76% 29.96 in 10.0 mi SE 11.5 mph - N/A   Mostly Cloudy
5:13 AM 18.5 °F 4.9 °F 12.7 °F 78% 29.93 in 10.0 mi SE 13.8 mph - N/A   Mostly Cloudy
5:33 AM 19.0 °F 6.1 °F 13.6 °F 79% 29.91 in 10.0 mi SE 12.7 mph 18.4 mph N/A   Overcast
5:53 AM 19.2 °F 7.0 °F 14.2 °F 81% 29.90 in 10.0 mi SE 11.5 mph - N/A   Scattered Clouds
6:13 AM 19.6 °F 8.1 °F 15.3 °F 83% 29.87 in 10.0 mi SSE 10.4 mph - N/A   Mostly Cloudy
6:33 AM 20.5 °F 10.0 °F 16.7 °F 85% 29.87 in 10.0 mi SSE 9.2 mph - N/A   Overcast
6:53 AM 21.4 °F 10.4 °F 18.0 °F 87% 29.85 in 10.0 mi SSE 10.4 mph - N/A   Overcast
7:13 AM 21.9 °F 12.5 °F 19.0 °F 89% 29.84 in 10.0 mi SSE 8.1 mph - N/A   Overcast
7:33 AM 23.0 °F 13.1 °F 20.3 °F 89% 29.82 in 10.0 mi SSE 9.2 mph - N/A   Overcast
7:54 AM 23.0 °F 14.7 °F 20.5 °F 90% 29.81 in 10.0 mi SSE 6.9 mph - N/A   Mostly Cloudy
8:13 AM 23.0 °F 15.8 °F 20.5 °F 90% 29.81 in 7.0 mi SSE 5.8 mph - N/A   Scattered Clouds
8:33 AM 23.2 °F 15.0 °F 21.2 °F 92% 29.80 in 7.0 mi South 6.9 mph - N/A   Clear
8:54 AM 24.4 °F 16.5 °F 22.3 °F 91% 29.80 in 7.0 mi South 6.9 mph - N/A   Clear
9:13 AM 25.2 °F 17.3 °F 22.8 °F 91% 29.79 in 7.0 mi South 6.9 mph - N/A   Clear
9:34 AM 26.4 °F 19.8 °F 23.5 °F 89% 29.79 in 7.0 mi South 5.8 mph - N/A   Clear
9:53 AM 27.9 °F 22.6 °F 23.9 °F 85% 29.79 in 7.0 mi SSW 4.6 mph - N/A   Clear
10:13 AM 29.1 °F 20.0 °F 24.4 °F 83% 29.77 in 10.0 mi South 10.4 mph - N/A   Clear
10:34 AM 30.0 °F 22.4 °F 24.4 °F 80% 29.77 in 10.0 mi SSW 8.1 mph - N/A   Clear
10:54 AM 31.8 °F 24.6 °F 25.2 °F 76% 29.76 in 10.0 mi SSW 8.1 mph - N/A   Clear
11:13 AM 32.4 °F 26.0 °F 25.3 °F 75% 29.76 in 10.0 mi SW 6.9 mph - N/A   Clear
11:33 AM 34.2 °F 26.8 °F 26.1 °F 72% 29.74 in 10.0 mi WSW 9.2 mph - N/A   Clear
11:53 AM 34.7 °F 27.5 °F 25.7 °F 70% 29.74 in 10.0 mi WSW 9.2 mph - N/A   Clear
12:13 PM 34.7 °F 27.5 °F 26.2 °F 71% 29.73 in 10.0 mi WSW 9.2 mph - N/A   Clear
12:33 PM 34.7 °F 28.1 °F 26.1 °F 71% 29.72 in 10.0 mi WSW 8.1 mph - N/A   Clear
12:54 PM 34.0 °F 26.6 °F 26.2 °F 73% 29.72 in 10.0 mi West 9.2 mph - N/A   Clear
1:13 PM 34.5 °F 28.6 °F 26.2 °F 72% 29.71 in 10.0 mi SW 6.9 mph - N/A   Clear
1:33 PM 34.3 °F 26.5 °F 26.4 °F 73% 29.72 in 10.0 mi WSW 10.4 mph - N/A   Clear
1:53 PM 34.2 °F 26.8 °F 25.7 °F 71% 29.71 in 10.0 mi WSW 9.2 mph - N/A   Clear
2:14 PM 33.8 °F 26.4 °F 25.7 °F 72% 29.72 in 10.0 mi West 9.2 mph - N/A   Clear
2:33 PM 34.3 °F 28.4 °F 26.4 °F 73% 29.72 in 10.0 mi West 6.9 mph - N/A   Clear
2:53 PM 35.2 °F 28.1 °F 26.2 °F 70% 29.72 in 10.0 mi West 9.2 mph - N/A   Clear
3:13 PM 35.1 °F 28.6 °F 26.6 °F 71% 29.73 in 10.0 mi West 8.1 mph - N/A   Clear
3:33 PM 36.0 °F 29.6 °F 26.2 °F 68% 29.73 in 10.0 mi West 8.1 mph - N/A   Clear
3:54 PM 35.6 °F 29.9 °F 26.8 °F 70% 29.73 in 10.0 mi West 6.9 mph - N/A   Clear
4:13 PM 34.5 °F 30.4 °F 27.1 °F 74% 29.73 in 10.0 mi WSW 4.6 mph - N/A   Clear
4:33 PM 33.8 °F 27.0 °F 26.2 °F 74% 29.74 in 10.0 mi West 8.1 mph - N/A   Clear
4:53 PM 33.1 °F 26.1 °F 26.2 °F 76% 29.75 in 10.0 mi West 8.1 mph - N/A   Clear
5:13 PM 32.0 °F 25.6 °F 25.7 °F 78% 29.75 in 10.0 mi West 6.9 mph - N/A   Clear
5:33 PM 32.0 °F 25.6 °F 25.5 °F 77% 29.76 in 10.0 mi West 6.9 mph - N/A   Clear
5:54 PM 29.7 °F 23.7 °F 24.6 °F 81% 29.77 in 10.0 mi West 5.8 mph - N/A   Clear
6:13 PM 29.8 °F 24.9 °F 24.4 °F 80% 29.76 in 10.0 mi WSW 4.6 mph - N/A   Clear
6:33 PM 27.1 °F 20.7 °F 23.9 °F 88% 29.77 in 10.0 mi West 5.8 mph - N/A   Scattered Clouds
6:53 PM 27.5 °F - 23.9 °F 86% 29.77 in 10.0 mi Calm Calm - N/A   Scattered Clouds
7:13 PM 27.5 °F 22.2 °F 23.9 °F 86% 29.77 in 10.0 mi WSW 4.6 mph - N/A   Mostly Cloudy
7:33 PM 25.0 °F 19.3 °F 22.5 °F 90% 29.77 in 10.0 mi SW 4.6 mph - N/A   Overcast
7:53 PM 27.9 °F 20.6 °F 24.6 °F 88% 29.77 in 10.0 mi SW 6.9 mph - N/A   Mostly Cloudy
8:13 PM 29.1 °F 20.6 °F 25.7 °F 87% 29.77 in 10.0 mi SW 9.2 mph - N/A   Scattered Clouds
8:33 PM 30.2 °F 21.9 °F 26.6 °F 86% 29.76 in 10.0 mi SW 9.2 mph - N/A   Clear
8:53 PM 28.6 °F 20.7 °F 25.5 °F 88% 29.75 in 10.0 mi SW 8.1 mph - N/A   Clear
9:13 PM 26.4 °F 22.4 °F 23.5 °F 89% 29.75 in 10.0 mi SW 3.5 mph - N/A   Clear
9:34 PM 23.9 °F 16.8 °F 22.1 °F 93% 29.77 in 10.0 mi WSW 5.8 mph - N/A   Clear
9:53 PM 23.2 °F 16.0 °F 21.7 °F 94% 29.77 in 10.0 mi West 5.8 mph - N/A   Clear
10:13 PM 24.1 °F - 22.5 °F 94% 29.77 in 10.0 mi Calm Calm - N/A   Clear
10:33 PM 26.2 °F - 25.0 °F 95% 29.77 in 10.0 mi Calm Calm - N/A   Clear
10:54 PM 25.2 °F - 24.1 °F 96% 29.76 in 10.0 mi Calm Calm - N/A   Clear
11:13 PM 23.9 °F - 22.8 °F 96% 29.76 in 10.0 mi Calm Calm - N/A   Clear
11:33 PM 24.3 °F - 23.5 °F 97% 29.75 in 7.0 mi Calm Calm - N/A   Clear
11:54 PM 24.1 °F - 23.0 °F 96% 29.75 in 10.0 mi Calm Calm - N/A   Clear